sensor_id;sensor_type;location;lat;lon;timestamp;temperature;humidity
4107;DHT22;21906;50.812;7.132;2022-10-30T00:02:07;18.10;69.40
4107;DHT22;21906;50.812;7.132;2022-10-30T00:04:33;18.10;69.40
4107;DHT22;21906;50.812;7.132;2022-10-30T00:06:59;18.10;69.50
4107;DHT22;21906;50.812;7.132;2022-10-30T00:09:24;18.00;69.40
4107;DHT22;21906;50.812;7.132;2022-10-30T00:11:50;18.10;69.50
4107;DHT22;21906;50.812;7.132;2022-10-30T00:14:15;18.00;69.60
4107;DHT22;21906;50.812;7.132;2022-10-30T00:16:42;18.00;69.50
4107;DHT22;21906;50.812;7.132;2022-10-30T00:19:08;17.90;69.60
4107;DHT22;21906;50.812;7.132;2022-10-30T00:21:33;17.90;69.80
4107;DHT22;21906;50.812;7.132;2022-10-30T00:23:59;17.90;69.90
4107;DHT22;21906;50.812;7.132;2022-10-30T00:26:25;17.90;70.00
4107;DHT22;21906;50.812;7.132;2022-10-30T00:28:52;17.90;69.90
4107;DHT22;21906;50.812;7.132;2022-10-30T00:31:18;17.90;70.10
4107;DHT22;21906;50.812;7.132;2022-10-30T00:33:49;17.90;69.90
4107;DHT22;21906;50.812;7.132;2022-10-30T00:36:14;17.90;69.90
4107;DHT22;21906;50.812;7.132;2022-10-30T00:38:40;17.90;70.00
4107;DHT22;21906;50.812;7.132;2022-10-30T00:41:06;17.90;70.00
4107;DHT22;21906;50.812;7.132;2022-10-30T00:43:38;17.90;70.20
4107;DHT22;21906;50.812;7.132;2022-10-30T00:46:24;17.90;70.10
4107;DHT22;21906;50.812;7.132;2022-10-30T00:48:55;17.90;70.10
4107;DHT22;21906;50.812;7.132;2022-10-30T00:51:22;17.90;70.00
4107;DHT22;21906;50.812;7.132;2022-10-30T00:53:49;17.90;70.10
4107;DHT22;21906;50.812;7.132;2022-10-30T00:56:18;17.80;70.20
4107;DHT22;21906;50.812;7.132;2022-10-30T00:58:51;17.80;70.30
4107;DHT22;21906;50.812;7.132;2022-10-30T01:01:22;17.80;70.40
4107;DHT22;21906;50.812;7.132;2022-10-30T01:03:52;17.70;70.50
4107;DHT22;21906;50.812;7.132;2022-10-30T01:06:20;17.70;70.50
4107;DHT22;21906;50.812;7.132;2022-10-30T01:08:47;17.70;70.50
4107;DHT22;21906;50.812;7.132;2022-10-30T01:11:12;17.80;70.40
4107;DHT22;21906;50.812;7.132;2022-10-30T01:13:39;17.80;70.30
4107;DHT22;21906;50.812;7.132;2022-10-30T01:21:49;17.70;70.30
4107;DHT22;21906;50.812;7.132;2022-10-30T01:29:44;17.70;70.20
4107;DHT22;21906;50.812;7.132;2022-10-30T01:38:00;17.60;70.40
4107;DHT22;21906;50.812;7.132;2022-10-30T01:40:27;17.50;70.50
4107;DHT22;21906;50.812;7.132;2022-10-30T01:42:57;17.50;70.70
4107;DHT22;21906;50.812;7.132;2022-10-30T01:48:30;17.50;70.90
4107;DHT22;21906;50.812;7.132;2022-10-30T01:53:50;17.40;71.10
4107;DHT22;21906;50.812;7.132;2022-10-30T01:59:23;17.40;71.50
4107;DHT22;21906;50.812;7.132;2022-10-30T02:01:51;17.40;71.50
4107;DHT22;21906;50.812;7.132;2022-10-30T02:04:17;17.30;71.70
4107;DHT22;21906;50.812;7.132;2022-10-30T02:06:44;17.30;71.80
4107;DHT22;21906;50.812;7.132;2022-10-30T02:09:10;17.30;72.00
4107;DHT22;21906;50.812;7.132;2022-10-30T02:11:37;17.20;72.20
4107;DHT22;21906;50.812;7.132;2022-10-30T02:14:06;17.20;72.30
4107;DHT22;21906;50.812;7.132;2022-10-30T02:16:34;17.10;72.30
4107;DHT22;21906;50.812;7.132;2022-10-30T02:19:01;17.00;72.60
4107;DHT22;21906;50.812;7.132;2022-10-30T02:21:27;17.00;72.60
4107;DHT22;21906;50.812;7.132;2022-10-30T02:23:53;16.90;72.70
4107;DHT22;21906;50.812;7.132;2022-10-30T02:26:18;16.90;72.70
4107;DHT22;21906;50.812;7.132;2022-10-30T02:28:47;16.90;72.90
4107;DHT22;21906;50.812;7.132;2022-10-30T02:31:13;16.80;73.10
4107;DHT22;21906;50.812;7.132;2022-10-30T02:33:45;16.80;73.10
4107;DHT22;21906;50.812;7.132;2022-10-30T02:36:11;16.70;73.20
4107;DHT22;21906;50.812;7.132;2022-10-30T02:38:40;16.70;73.20
4107;DHT22;21906;50.812;7.132;2022-10-30T02:43:41;16.60;73.40
4107;DHT22;21906;50.812;7.132;2022-10-30T02:46:07;16.60;73.40
4107;DHT22;21906;50.812;7.132;2022-10-30T02:48:32;16.50;73.60
4107;DHT22;21906;50.812;7.132;2022-10-30T02:51:02;16.50;73.60
4107;DHT22;21906;50.812;7.132;2022-10-30T02:53:28;16.50;74.00
4107;DHT22;21906;50.812;7.132;2022-10-30T02:55:54;16.40;74.00
4107;DHT22;21906;50.812;7.132;2022-10-30T02:58:20;16.40;74.10
4107;DHT22;21906;50.812;7.132;2022-10-30T03:00:47;16.40;74.40
4107;DHT22;21906;50.812;7.132;2022-10-30T03:03:13;16.40;74.40
4107;DHT22;21906;50.812;7.132;2022-10-30T03:05:39;16.40;74.40
4107;DHT22;21906;50.812;7.132;2022-10-30T03:08:04;16.40;74.40
4107;DHT22;21906;50.812;7.132;2022-10-30T03:10:30;16.40;74.40
4107;DHT22;21906;50.812;7.132;2022-10-30T03:12:57;16.40;74.40
4107;DHT22;21906;50.812;7.132;2022-10-30T03:15:23;16.40;74.50
4107;DHT22;21906;50.812;7.132;2022-10-30T03:17:48;16.40;74.60
4107;DHT22;21906;50.812;7.132;2022-10-30T03:20:17;16.40;74.70
4107;DHT22;21906;50.812;7.132;2022-10-30T03:22:42;16.40;74.50
4107;DHT22;21906;50.812;7.132;2022-10-30T03:25:08;16.30;74.50
4107;DHT22;21906;50.812;7.132;2022-10-30T03:27:34;16.30;74.70
4107;DHT22;21906;50.812;7.132;2022-10-30T03:30:00;16.20;74.80
4107;DHT22;21906;50.812;7.132;2022-10-30T03:32:25;16.20;74.80
4107;DHT22;21906;50.812;7.132;2022-10-30T03:34:51;16.20;74.90
4107;DHT22;21906;50.812;7.132;2022-10-30T03:37:17;16.20;74.80
4107;DHT22;21906;50.812;7.132;2022-10-30T03:39:42;16.10;74.60
4107;DHT22;21906;50.812;7.132;2022-10-30T03:42:08;16.10;74.70
4107;DHT22;21906;50.812;7.132;2022-10-30T03:44:33;16.10;74.80
4107;DHT22;21906;50.812;7.132;2022-10-30T03:46:59;16.10;74.70
4107;DHT22;21906;50.812;7.132;2022-10-30T03:49:25;16.10;74.70
4107;DHT22;21906;50.812;7.132;2022-10-30T03:51:50;16.10;74.70
4107;DHT22;21906;50.812;7.132;2022-10-30T03:54:16;16.10;74.70
4107;DHT22;21906;50.812;7.132;2022-10-30T03:56:43;16.00;74.80
4107;DHT22;21906;50.812;7.132;2022-10-30T03:59:09;16.00;74.90
4107;DHT22;21906;50.812;7.132;2022-10-30T04:01:35;15.90;75.00
4107;DHT22;21906;50.812;7.132;2022-10-30T04:04:00;15.90;75.10
4107;DHT22;21906;50.812;7.132;2022-10-30T04:06:26;15.80;75.20
4107;DHT22;21906;50.812;7.132;2022-10-30T04:08:53;15.80;75.30
4107;DHT22;21906;50.812;7.132;2022-10-30T04:11:19;15.80;75.40
4107;DHT22;21906;50.812;7.132;2022-10-30T04:13:45;15.80;75.40
4107;DHT22;21906;50.812;7.132;2022-10-30T04:16:10;15.80;75.60
4107;DHT22;21906;50.812;7.132;2022-10-30T04:18:36;15.70;75.70
4107;DHT22;21906;50.812;7.132;2022-10-30T04:21:02;15.70;75.70
4107;DHT22;21906;50.812;7.132;2022-10-30T04:23:27;15.70;75.60
4107;DHT22;21906;50.812;7.132;2022-10-30T04:25:53;15.70;75.40
4107;DHT22;21906;50.812;7.132;2022-10-30T04:28:19;15.60;75.40
4107;DHT22;21906;50.812;7.132;2022-10-30T04:30:46;15.60;75.40
4107;DHT22;21906;50.812;7.132;2022-10-30T04:33:12;15.60;75.70
4107;DHT22;21906;50.812;7.132;2022-10-30T04:35:39;15.50;75.70
4107;DHT22;21906;50.812;7.132;2022-10-30T04:38:07;15.50;75.60
4107;DHT22;21906;50.812;7.132;2022-10-30T04:40:36;15.50;75.60
4107;DHT22;21906;50.812;7.132;2022-10-30T04:43:03;15.40;75.90
4107;DHT22;21906;50.812;7.132;2022-10-30T04:45:29;15.40;75.90
4107;DHT22;21906;50.812;7.132;2022-10-30T04:48:15;15.40;75.80
4107;DHT22;21906;50.812;7.132;2022-10-30T04:50:41;15.40;75.90
4107;DHT22;21906;50.812;7.132;2022-10-30T04:53:16;15.30;75.90
4107;DHT22;21906;50.812;7.132;2022-10-30T04:55:42;15.40;76.00
4107;DHT22;21906;50.812;7.132;2022-10-30T04:58:09;15.30;76.20
4107;DHT22;21906;50.812;7.132;2022-10-30T05:00:36;15.30;76.20
4107;DHT22;21906;50.812;7.132;2022-10-30T05:03:02;15.30;76.20
4107;DHT22;21906;50.812;7.132;2022-10-30T05:05:28;15.30;76.30
4107;DHT22;21906;50.812;7.132;2022-10-30T05:07:54;15.20;76.70
4107;DHT22;21906;50.812;7.132;2022-10-30T05:10:20;15.20;76.60
4107;DHT22;21906;50.812;7.132;2022-10-30T05:12:46;15.20;76.20
4107;DHT22;21906;50.812;7.132;2022-10-30T05:15:13;15.20;76.40
4107;DHT22;21906;50.812;7.132;2022-10-30T05:17:39;15.10;76.80
4107;DHT22;21906;50.812;7.132;2022-10-30T05:20:06;15.00;76.90
4107;DHT22;21906;50.812;7.132;2022-10-30T05:22:32;15.00;76.50
4107;DHT22;21906;50.812;7.132;2022-10-30T05:24:58;15.00;76.20
4107;DHT22;21906;50.812;7.132;2022-10-30T05:27:23;15.00;75.90
4107;DHT22;21906;50.812;7.132;2022-10-30T05:29:50;14.90;75.80
4107;DHT22;21906;50.812;7.132;2022-10-30T05:32:15;14.90;75.90
4107;DHT22;21906;50.812;7.132;2022-10-30T05:34:41;14.90;76.00
4107;DHT22;21906;50.812;7.132;2022-10-30T05:37:07;14.90;76.30
4107;DHT22;21906;50.812;7.132;2022-10-30T05:39:32;14.80;76.40
4107;DHT22;21906;50.812;7.132;2022-10-30T05:41:58;14.90;76.70
4107;DHT22;21906;50.812;7.132;2022-10-30T05:44:24;14.90;76.80
4107;DHT22;21906;50.812;7.132;2022-10-30T05:46:49;14.90;77.00
4107;DHT22;21906;50.812;7.132;2022-10-30T05:49:15;14.90;77.10
4107;DHT22;21906;50.812;7.132;2022-10-30T05:51:42;14.90;77.20
4107;DHT22;21906;50.812;7.132;2022-10-30T05:54:08;14.90;77.10
4107;DHT22;21906;50.812;7.132;2022-10-30T05:56:34;14.90;77.00
4107;DHT22;21906;50.812;7.132;2022-10-30T05:58:59;14.90;76.80
4107;DHT22;21906;50.812;7.132;2022-10-30T06:01:25;14.90;76.80
4107;DHT22;21906;50.812;7.132;2022-10-30T06:03:51;14.90;76.80
4107;DHT22;21906;50.812;7.132;2022-10-30T06:06:16;14.90;76.70
4107;DHT22;21906;50.812;7.132;2022-10-30T06:08:42;14.90;76.70
4107;DHT22;21906;50.812;7.132;2022-10-30T06:11:08;14.80;76.60
4107;DHT22;21906;50.812;7.132;2022-10-30T06:13:33;14.80;76.70
4107;DHT22;21906;50.812;7.132;2022-10-30T06:15:59;14.80;76.60
4107;DHT22;21906;50.812;7.132;2022-10-30T06:18:24;14.80;76.60
4107;DHT22;21906;50.812;7.132;2022-10-30T06:20:50;14.70;76.60
4107;DHT22;21906;50.812;7.132;2022-10-30T06:23:16;14.70;76.80
4107;DHT22;21906;50.812;7.132;2022-10-30T06:25:41;14.60;76.90
4107;DHT22;21906;50.812;7.132;2022-10-30T06:28:09;14.60;76.80
4107;DHT22;21906;50.812;7.132;2022-10-30T06:30:35;14.60;76.90
4107;DHT22;21906;50.812;7.132;2022-10-30T06:33:03;14.60;76.90
4107;DHT22;21906;50.812;7.132;2022-10-30T06:35:29;14.50;77.00
4107;DHT22;21906;50.812;7.132;2022-10-30T06:37:56;14.60;77.00
4107;DHT22;21906;50.812;7.132;2022-10-30T06:40:25;14.60;77.10
4107;DHT22;21906;50.812;7.132;2022-10-30T06:42:52;14.60;77.10
4107;DHT22;21906;50.812;7.132;2022-10-30T06:45:19;14.60;77.00
4107;DHT22;21906;50.812;7.132;2022-10-30T06:47:45;14.60;77.10
4107;DHT22;21906;50.812;7.132;2022-10-30T06:50:14;14.60;77.00
4107;DHT22;21906;50.812;7.132;2022-10-30T06:52:40;14.60;77.10
4107;DHT22;21906;50.812;7.132;2022-10-30T06:55:06;14.60;77.20
4107;DHT22;21906;50.812;7.132;2022-10-30T06:57:32;14.60;77.20
4107;DHT22;21906;50.812;7.132;2022-10-30T06:59:58;14.60;77.30
4107;DHT22;21906;50.812;7.132;2022-10-30T07:02:23;14.60;77.30
4107;DHT22;21906;50.812;7.132;2022-10-30T07:04:52;14.60;77.30
4107;DHT22;21906;50.812;7.132;2022-10-30T07:07:18;14.70;77.30
4107;DHT22;21906;50.812;7.132;2022-10-30T07:09:43;14.70;77.20
4107;DHT22;21906;50.812;7.132;2022-10-30T07:12:11;14.70;77.20
4107;DHT22;21906;50.812;7.132;2022-10-30T07:14:37;14.80;77.20
4107;DHT22;21906;50.812;7.132;2022-10-30T07:17:03;14.80;77.00
4107;DHT22;21906;50.812;7.132;2022-10-30T07:19:28;14.90;77.00
4107;DHT22;21906;50.812;7.132;2022-10-30T07:21:54;14.90;77.00
4107;DHT22;21906;50.812;7.132;2022-10-30T07:24:20;14.90;77.10
4107;DHT22;21906;50.812;7.132;2022-10-30T07:26:45;14.90;77.10
4107;DHT22;21906;50.812;7.132;2022-10-30T07:29:11;15.00;77.10
4107;DHT22;21906;50.812;7.132;2022-10-30T07:31:37;15.10;77.00
4107;DHT22;21906;50.812;7.132;2022-10-30T07:34:03;15.10;76.90
4107;DHT22;21906;50.812;7.132;2022-10-30T07:36:28;15.20;76.80
4107;DHT22;21906;50.812;7.132;2022-10-30T07:38:54;15.20;76.80
4107;DHT22;21906;50.812;7.132;2022-10-30T07:41:20;15.20;76.70
4107;DHT22;21906;50.812;7.132;2022-10-30T07:43:46;15.30;76.70
4107;DHT22;21906;50.812;7.132;2022-10-30T07:46:19;15.10;76.90
4107;DHT22;21906;50.812;7.132;2022-10-30T07:48:44;15.20;77.10
4107;DHT22;21906;50.812;7.132;2022-10-30T07:51:10;15.30;77.10
4107;DHT22;21906;50.812;7.132;2022-10-30T07:53:36;15.40;77.00
4107;DHT22;21906;50.812;7.132;2022-10-30T07:56:01;15.40;76.90
4107;DHT22;21906;50.812;7.132;2022-10-30T07:58:27;15.50;76.60
4107;DHT22;21906;50.812;7.132;2022-10-30T08:00:53;15.50;76.30
4107;DHT22;21906;50.812;7.132;2022-10-30T08:03:19;15.60;76.20
4107;DHT22;21906;50.812;7.132;2022-10-30T08:05:44;15.70;75.90
4107;DHT22;21906;50.812;7.132;2022-10-30T08:08:10;15.80;75.90
4107;DHT22;21906;50.812;7.132;2022-10-30T08:10:35;15.80;76.00
4107;DHT22;21906;50.812;7.132;2022-10-30T08:13:02;15.90;76.00
4107;DHT22;21906;50.812;7.132;2022-10-30T08:15:28;15.90;76.20
4107;DHT22;21906;50.812;7.132;2022-10-30T08:17:53;15.90;76.10
4107;DHT22;21906;50.812;7.132;2022-10-30T08:20:21;16.00;75.70
4107;DHT22;21906;50.812;7.132;2022-10-30T08:22:52;16.10;75.50
4107;DHT22;21906;50.812;7.132;2022-10-30T08:25:21;16.20;75.30
4107;DHT22;21906;50.812;7.132;2022-10-30T08:28:03;16.30;75.20
4107;DHT22;21906;50.812;7.132;2022-10-30T08:30:32;16.40;75.00
4107;DHT22;21906;50.812;7.132;2022-10-30T08:33:04;16.40;74.90
4107;DHT22;21906;50.812;7.132;2022-10-30T08:35:30;16.40;75.00
4107;DHT22;21906;50.812;7.132;2022-10-30T08:37:57;16.50;75.10
4107;DHT22;21906;50.812;7.132;2022-10-30T08:40:25;16.60;75.40
4107;DHT22;21906;50.812;7.132;2022-10-30T08:42:55;16.60;76.20
4107;DHT22;21906;50.812;7.132;2022-10-30T08:45:22;16.70;76.40
4107;DHT22;21906;50.812;7.132;2022-10-30T08:47:58;16.70;75.80
4107;DHT22;21906;50.812;7.132;2022-10-30T08:50:24;16.80;75.20
4107;DHT22;21906;50.812;7.132;2022-10-30T08:52:50;16.90;74.90
4107;DHT22;21906;50.812;7.132;2022-10-30T08:55:16;16.90;74.70
4107;DHT22;21906;50.812;7.132;2022-10-30T08:57:42;16.90;74.50
4107;DHT22;21906;50.812;7.132;2022-10-30T09:00:08;16.90;74.50
4107;DHT22;21906;50.812;7.132;2022-10-30T09:02:35;17.00;74.40
4107;DHT22;21906;50.812;7.132;2022-10-30T09:05:04;17.00;74.30
4107;DHT22;21906;50.812;7.132;2022-10-30T09:07:31;17.10;74.60
4107;DHT22;21906;50.812;7.132;2022-10-30T09:09:56;17.10;74.20
4107;DHT22;21906;50.812;7.132;2022-10-30T09:12:22;17.20;74.00
4107;DHT22;21906;50.812;7.132;2022-10-30T09:14:47;17.20;73.90
4107;DHT22;21906;50.812;7.132;2022-10-30T09:17:13;17.20;73.80
4107;DHT22;21906;50.812;7.132;2022-10-30T09:19:39;17.40;73.80
4107;DHT22;21906;50.812;7.132;2022-10-30T09:22:04;17.40;74.00
4107;DHT22;21906;50.812;7.132;2022-10-30T09:24:30;17.50;73.90
4107;DHT22;21906;50.812;7.132;2022-10-30T09:26:55;17.60;73.50
4107;DHT22;21906;50.812;7.132;2022-10-30T09:29:21;17.70;73.10
4107;DHT22;21906;50.812;7.132;2022-10-30T09:31:47;17.70;72.90
4107;DHT22;21906;50.812;7.132;2022-10-30T09:34:13;17.80;72.20
4107;DHT22;21906;50.812;7.132;2022-10-30T09:36:38;17.90;72.10
4107;DHT22;21906;50.812;7.132;2022-10-30T09:39:04;18.00;72.00
4107;DHT22;21906;50.812;7.132;2022-10-30T09:47:16;18.30;71.50
4107;DHT22;21906;50.812;7.132;2022-10-30T09:52:53;18.50;70.90
4107;DHT22;21906;50.812;7.132;2022-10-30T10:01:26;18.60;70.70
4107;DHT22;21906;50.812;7.132;2022-10-30T10:04:00;18.70;71.00
4107;DHT22;21906;50.812;7.132;2022-10-30T10:06:27;18.90;70.30
4107;DHT22;21906;50.812;7.132;2022-10-30T10:09:05;18.90;70.40
4107;DHT22;21906;50.812;7.132;2022-10-30T10:11:36;19.00;70.00
4107;DHT22;21906;50.812;7.132;2022-10-30T10:16:38;19.20;69.60
4107;DHT22;21906;50.812;7.132;2022-10-30T10:19:22;19.30;69.70
4107;DHT22;21906;50.812;7.132;2022-10-30T10:21:57;19.40;69.30
4107;DHT22;21906;50.812;7.132;2022-10-30T10:24:33;19.40;69.70
4107;DHT22;21906;50.812;7.132;2022-10-30T10:29:32;19.60;69.90
4107;DHT22;21906;50.812;7.132;2022-10-30T10:37:29;20.10;69.20
4107;DHT22;21906;50.812;7.132;2022-10-30T10:42:51;20.30;67.30
4107;DHT22;21906;50.812;7.132;2022-10-30T10:48:50;20.40;67.70
4107;DHT22;21906;50.812;7.132;2022-10-30T10:51:49;20.60;66.90
4107;DHT22;21906;50.812;7.132;2022-10-30T10:54:29;20.70;66.40
4107;DHT22;21906;50.812;7.132;2022-10-30T10:56:57;20.80;66.20
4107;DHT22;21906;50.812;7.132;2022-10-30T10:59:47;20.90;66.40
4107;DHT22;21906;50.812;7.132;2022-10-30T11:02:40;21.10;67.00
4107;DHT22;21906;50.812;7.132;2022-10-30T11:05:28;21.20;65.30
4107;DHT22;21906;50.812;7.132;2022-10-30T11:08:00;21.40;64.70
4107;DHT22;21906;50.812;7.132;2022-10-30T11:10:28;21.40;64.50
4107;DHT22;21906;50.812;7.132;2022-10-30T11:12:54;21.60;64.50
4107;DHT22;21906;50.812;7.132;2022-10-30T11:15:45;21.70;64.20
4107;DHT22;21906;50.812;7.132;2022-10-30T11:18:07;21.80;62.60
4107;DHT22;21906;50.812;7.132;2022-10-30T11:20:54;21.90;63.00
4107;DHT22;21906;50.812;7.132;2022-10-30T11:23:36;22.00;62.60
4107;DHT22;21906;50.812;7.132;2022-10-30T11:26:26;22.10;63.10
4107;DHT22;21906;50.812;7.132;2022-10-30T11:28:53;22.20;62.50
4107;DHT22;21906;50.812;7.132;2022-10-30T11:33:49;22.30;62.00
4107;DHT22;21906;50.812;7.132;2022-10-30T11:36:18;22.40;62.00
4107;DHT22;21906;50.812;7.132;2022-10-30T11:38:43;22.50;61.00
4107;DHT22;21906;50.812;7.132;2022-10-30T11:41:10;22.50;61.00
4107;DHT22;21906;50.812;7.132;2022-10-30T11:43:38;22.60;60.30
4107;DHT22;21906;50.812;7.132;2022-10-30T11:46:06;22.60;59.50
4107;DHT22;21906;50.812;7.132;2022-10-30T11:48:37;22.60;58.70
4107;DHT22;21906;50.812;7.132;2022-10-30T11:51:04;22.80;58.10
4107;DHT22;21906;50.812;7.132;2022-10-30T11:53:36;22.90;57.30
4107;DHT22;21906;50.812;7.132;2022-10-30T11:56:15;23.00;57.80
4107;DHT22;21906;50.812;7.132;2022-10-30T11:58:45;23.20;57.60
4107;DHT22;21906;50.812;7.132;2022-10-30T12:01:22;23.30;56.30
4107;DHT22;21906;50.812;7.132;2022-10-30T12:03:49;23.40;55.50
4107;DHT22;21906;50.812;7.132;2022-10-30T12:06:19;23.60;55.50
4107;DHT22;21906;50.812;7.132;2022-10-30T12:11:27;23.80;55.40
4107;DHT22;21906;50.812;7.132;2022-10-30T12:13:54;23.90;55.60
4107;DHT22;21906;50.812;7.132;2022-10-30T12:16:20;24.10;54.20
4107;DHT22;21906;50.812;7.132;2022-10-30T12:19:12;24.20;54.10
4107;DHT22;21906;50.812;7.132;2022-10-30T12:21:48;24.30;53.50
4107;DHT22;21906;50.812;7.132;2022-10-30T12:24:28;24.40;52.40
4107;DHT22;21906;50.812;7.132;2022-10-30T12:26:56;24.40;53.50
4107;DHT22;21906;50.812;7.132;2022-10-30T12:29:38;24.40;53.00
4107;DHT22;21906;50.812;7.132;2022-10-30T12:32:07;24.60;51.60
4107;DHT22;21906;50.812;7.132;2022-10-30T12:34:50;24.60;52.50
4107;DHT22;21906;50.812;7.132;2022-10-30T12:37:25;24.60;51.60
4107;DHT22;21906;50.812;7.132;2022-10-30T12:40:07;24.60;51.80
4107;DHT22;21906;50.812;7.132;2022-10-30T12:43:24;24.60;52.30
4107;DHT22;21906;50.812;7.132;2022-10-30T12:45:39;24.60;51.50
4107;DHT22;21906;50.812;7.132;2022-10-30T12:51:20;24.40;52.40
4107;DHT22;21906;50.812;7.132;2022-10-30T12:53:57;24.30;52.80
4107;DHT22;21906;50.812;7.132;2022-10-30T12:56:33;24.20;52.40
4107;DHT22;21906;50.812;7.132;2022-10-30T12:59:27;24.10;50.90
4107;DHT22;21906;50.812;7.132;2022-10-30T13:02:00;24.00;51.30
4107;DHT22;21906;50.812;7.132;2022-10-30T13:04:34;24.00;50.40
4107;DHT22;21906;50.812;7.132;2022-10-30T13:09:47;24.00;50.40
4107;DHT22;21906;50.812;7.132;2022-10-30T13:12:18;23.90;50.50
4107;DHT22;21906;50.812;7.132;2022-10-30T13:15:02;24.00;50.70
4107;DHT22;21906;50.812;7.132;2022-10-30T13:17:29;23.90;50.40
4107;DHT22;21906;50.812;7.132;2022-10-30T13:19:54;23.90;50.60
4107;DHT22;21906;50.812;7.132;2022-10-30T13:22:37;23.90;50.60
4107;DHT22;21906;50.812;7.132;2022-10-30T13:25:12;23.80;51.30
4107;DHT22;21906;50.812;7.132;2022-10-30T13:30:13;23.70;51.50
4107;DHT22;21906;50.812;7.132;2022-10-30T13:35:29;23.70;51.60
4107;DHT22;21906;50.812;7.132;2022-10-30T13:53:47;23.20;53.20
4107;DHT22;21906;50.812;7.132;2022-10-30T13:56:16;23.20;53.30
4107;DHT22;21906;50.812;7.132;2022-10-30T14:01:42;23.10;53.20
4107;DHT22;21906;50.812;7.132;2022-10-30T14:04:58;23.00;52.60
4107;DHT22;21906;50.812;7.132;2022-10-30T14:07:17;22.90;52.20
4107;DHT22;21906;50.812;7.132;2022-10-30T14:21:28;22.90;53.90
4107;DHT22;21906;50.812;7.132;2022-10-30T14:28:35;22.70;55.00
4107;DHT22;21906;50.812;7.132;2022-10-30T14:31:06;22.70;55.00
4107;DHT22;21906;50.812;7.132;2022-10-30T14:38:54;22.40;55.70
4107;DHT22;21906;50.812;7.132;2022-10-30T14:52:19;22.00;56.30
4107;DHT22;21906;50.812;7.132;2022-10-30T14:55:24;22.00;56.50
4107;DHT22;21906;50.812;7.132;2022-10-30T15:03:13;21.80;57.30
4107;DHT22;21906;50.812;7.132;2022-10-30T15:17:00;21.40;59.00
4107;DHT22;21906;50.812;7.132;2022-10-30T15:19:27;21.40;59.30
4107;DHT22;21906;50.812;7.132;2022-10-30T15:21:54;21.40;59.10
4107;DHT22;21906;50.812;7.132;2022-10-30T15:24:23;21.30;59.40
4107;DHT22;21906;50.812;7.132;2022-10-30T15:26:52;21.30;59.60
4107;DHT22;21906;50.812;7.132;2022-10-30T15:29:23;21.30;59.70
4107;DHT22;21906;50.812;7.132;2022-10-30T15:32:01;21.30;59.60
4107;DHT22;21906;50.812;7.132;2022-10-30T15:34:28;21.30;59.70
4107;DHT22;21906;50.812;7.132;2022-10-30T15:36:55;21.30;59.90
4107;DHT22;21906;50.812;7.132;2022-10-30T15:39:21;21.20;59.80
4107;DHT22;21906;50.812;7.132;2022-10-30T15:41:55;21.30;60.00
4107;DHT22;21906;50.812;7.132;2022-10-30T15:44:24;21.10;60.00
4107;DHT22;21906;50.812;7.132;2022-10-30T15:46:52;21.10;60.20
4107;DHT22;21906;50.812;7.132;2022-10-30T15:49:34;21.10;60.00
4107;DHT22;21906;50.812;7.132;2022-10-30T15:52:11;21.00;60.00
4107;DHT22;21906;50.812;7.132;2022-10-30T15:54:40;20.90;60.10
4107;DHT22;21906;50.812;7.132;2022-10-30T15:57:57;20.90;60.50
4107;DHT22;21906;50.812;7.132;2022-10-30T16:00:17;20.80;60.50
4107;DHT22;21906;50.812;7.132;2022-10-30T16:02:46;20.70;60.50
4107;DHT22;21906;50.812;7.132;2022-10-30T16:05:24;20.60;60.20
4107;DHT22;21906;50.812;7.132;2022-10-30T16:07:50;20.50;60.30
4107;DHT22;21906;50.812;7.132;2022-10-30T16:10:19;20.40;60.50
4107;DHT22;21906;50.812;7.132;2022-10-30T16:12:44;20.40;60.60
4107;DHT22;21906;50.812;7.132;2022-10-30T16:18:18;20.20;60.90
4107;DHT22;21906;50.812;7.132;2022-10-30T16:20:51;20.20;61.10
4107;DHT22;21906;50.812;7.132;2022-10-30T16:23:19;20.10;61.30
4107;DHT22;21906;50.812;7.132;2022-10-30T16:25:46;20.10;61.40
4107;DHT22;21906;50.812;7.132;2022-10-30T16:28:28;19.90;61.50
4107;DHT22;21906;50.812;7.132;2022-10-30T16:30:56;19.90;61.70
4107;DHT22;21906;50.812;7.132;2022-10-30T16:33:25;19.90;61.80
4107;DHT22;21906;50.812;7.132;2022-10-30T16:35:52;19.80;62.00
4107;DHT22;21906;50.812;7.132;2022-10-30T16:38:19;19.80;62.10
4107;DHT22;21906;50.812;7.132;2022-10-30T16:40:45;19.70;62.00
4107;DHT22;21906;50.812;7.132;2022-10-30T16:43:29;19.60;62.00
4107;DHT22;21906;50.812;7.132;2022-10-30T16:48:50;19.60;61.50
4107;DHT22;21906;50.812;7.132;2022-10-30T16:51:17;19.50;61.30
4107;DHT22;21906;50.812;7.132;2022-10-30T16:53:50;19.50;61.20
4107;DHT22;21906;50.812;7.132;2022-10-30T16:56:27;19.40;61.60
4107;DHT22;21906;50.812;7.132;2022-10-30T16:58:56;19.40;61.80
4107;DHT22;21906;50.812;7.132;2022-10-30T17:01:29;19.30;61.70
4107;DHT22;21906;50.812;7.132;2022-10-30T17:03:55;19.30;61.90
4107;DHT22;21906;50.812;7.132;2022-10-30T17:08:59;19.30;61.70
4107;DHT22;21906;50.812;7.132;2022-10-30T17:11:36;19.30;61.80
4107;DHT22;21906;50.812;7.132;2022-10-30T17:14:19;19.20;61.90
4107;DHT22;21906;50.812;7.132;2022-10-30T17:16:57;19.20;61.70
4107;DHT22;21906;50.812;7.132;2022-10-30T17:21:57;19.10;62.00
4107;DHT22;21906;50.812;7.132;2022-10-30T17:24:29;19.10;62.20
4107;DHT22;21906;50.812;7.132;2022-10-30T17:27:01;19.10;62.40
4107;DHT22;21906;50.812;7.132;2022-10-30T17:32:26;19.00;62.10
4107;DHT22;21906;50.812;7.132;2022-10-30T17:35:00;19.00;62.20
4107;DHT22;21906;50.812;7.132;2022-10-30T17:37:27;19.00;62.20
4107;DHT22;21906;50.812;7.132;2022-10-30T17:39:53;19.00;62.30
4107;DHT22;21906;50.812;7.132;2022-10-30T17:42:18;19.00;62.40
4107;DHT22;21906;50.812;7.132;2022-10-30T17:44:44;19.00;62.50
4107;DHT22;21906;50.812;7.132;2022-10-30T17:47:15;18.90;62.50
4107;DHT22;21906;50.812;7.132;2022-10-30T17:49:42;18.90;62.70
4107;DHT22;21906;50.812;7.132;2022-10-30T17:52:13;18.90;62.90
4107;DHT22;21906;50.812;7.132;2022-10-30T17:54:41;18.90;63.20
4107;DHT22;21906;50.812;7.132;2022-10-30T17:57:11;18.80;63.50
4107;DHT22;21906;50.812;7.132;2022-10-30T17:59:38;18.70;63.80
4107;DHT22;21906;50.812;7.132;2022-10-30T18:02:15;18.60;64.10
4107;DHT22;21906;50.812;7.132;2022-10-30T18:04:42;18.60;64.40
4107;DHT22;21906;50.812;7.132;2022-10-30T18:07:09;18.50;64.40
4107;DHT22;21906;50.812;7.132;2022-10-30T18:09:34;18.40;64.60
4107;DHT22;21906;50.812;7.132;2022-10-30T18:12:01;18.40;64.70
4107;DHT22;21906;50.812;7.132;2022-10-30T18:14:26;18.40;64.50
4107;DHT22;21906;50.812;7.132;2022-10-30T18:16:52;18.30;64.60
4107;DHT22;21906;50.812;7.132;2022-10-30T18:19:17;18.30;64.70
4107;DHT22;21906;50.812;7.132;2022-10-30T18:21:43;18.30;64.90
4107;DHT22;21906;50.812;7.132;2022-10-30T18:24:13;18.20;65.10
4107;DHT22;21906;50.812;7.132;2022-10-30T18:26:41;18.20;65.30
4107;DHT22;21906;50.812;7.132;2022-10-30T18:29:09;18.20;65.50
4107;DHT22;21906;50.812;7.132;2022-10-30T18:31:36;18.20;65.60
4107;DHT22;21906;50.812;7.132;2022-10-30T18:34:03;18.10;65.60
4107;DHT22;21906;50.812;7.132;2022-10-30T18:36:29;18.10;65.70